Latest Weather Observations for Lockhart River

IDQ60801

Issued at 6:32 am EST Wednesday 28 September 2016 (issued every 30 minutes, with the page automatically refreshed every 10 minutes)

About weather observations | Map of weather stations | Latest weather observations for QLD | Other Formats
Station Details ID: 028008 Name: LOCKHART RIVER AIRPORT Lat: -12.79 Lon: 143.30 Height: 18.5 m
Data from the previous 72 hours. | See also: Recent months at Lockhart River
Date/Time
EST
Temp
°C
App
Temp
°C
Dew
Point
°C
Rel
Hum
%
Delta-T
°C
Wind Press
QNH
hPa
Press
MSL
hPa
Rain since
9am
mm
Dir  Spd
km/h
Gust
km/h
Spd
kts
Gust
kts
28/06:30am 21.7 25.6 20.3 92 0.9 CALM 0 0 0 0 1011.7 1011.6 0.0
28/06:00am 23.1 25.2 20.1 83 1.9 S 9 13 5 7 1011.3 1011.2 0.0
28/05:30am 24.0 26.4 20.9 83 2.0 SE 9 13 5 7 1011.0 1010.9 0.0
28/05:00am 25.4 28.3 21.7 80 2.5 ESE 9 15 5 8 1010.7 1010.6 0.0
28/04:30am 23.8 27.3 21.9 89 1.3 W 6 13 3 7 1010.4 1010.3 0.0
28/04:00am 24.4 28.1 23.2 93 0.8 SE 9 13 5 7 1010.2 1010.1 0.0
28/03:30am 21.5 24.6 21.0 97 0.3 W 6 9 3 5 1010.0 1009.9 0.0
28/03:00am 21.1 24.3 20.6 97 0.3 WNW 4 9 2 5 1010.1 1010.0 0.0
28/02:30am 21.0 24.9 20.3 96 0.5 CALM 0 0 0 0 1010.1 1010.0 0.0
28/02:00am 20.9 24.7 20.2 96 0.4 CALM 0 0 0 0 1010.2 1010.1 0.0
28/01:30am 21.0 24.8 20.2 95 0.5 CALM 0 0 0 0 1010.7 1010.6 0.0
28/01:00am 21.5 25.5 20.5 94 0.6 CALM 0 0 0 0 1011.2 1011.1 0.0
28/12:30am 22.0 25.5 20.3 90 1.1 S 2 6 1 3 1011.4 1011.3 0.0
28/12:00am 23.4 26.7 21.8 91 1.1 S 7 11 4 6 1011.7 1011.6 0.0
 
Date/Time
EST
Temp
°C
App
Temp
°C
Dew
Point
°C
Rel
Hum
%
Delta-T
°C
Wind Press
QNH
hPa
Press
MSL
hPa
Rain since
9am
mm
Dir  Spd
km/h
Gust
km/h
Spd
kts
Gust
kts
27/11:30pm 23.4 26.7 21.8 91 1.1 S 7 9 4 5 1011.9 1011.8 0.0
27/11:00pm 22.6 26.1 21.1 91 1.0 S 4 7 2 4 1012.0 1011.9 0.0
27/10:30pm 23.0 27.2 20.9 88 1.4 CALM 0 0 0 0 1011.9 1011.8 0.0
27/10:00pm 24.3 27.8 21.8 86 1.7 SE 6 9 3 5 1011.9 1011.8 0.0
27/09:30pm 24.8 28.3 21.9 84 1.9 SE 6 9 3 5 1011.9 1011.8 0.0
27/09:00pm 25.3 28.3 22.0 82 2.2 SE 9 15 5 8 1011.7 1011.6 0.0
27/08:30pm 25.6 29.1 22.1 81 2.3 SE 7 11 4 6 1011.2 1011.1 0.0
27/08:00pm 25.8 28.8 21.9 79 2.6 ESE 9 11 5 6 1011.0 1010.9 0.0
27/07:30pm 26.2 28.5 22.1 78 2.7 SE 13 19 7 10 1010.6 1010.5 0.0
27/07:00pm 26.6 28.0 21.8 75 3.2 SE 17 24 9 13 1010.4 1010.3 0.0
27/06:30pm 27.0 28.9 22.0 74 3.4 ESE 15 20 8 11 1010.1 1010.0 0.0
27/06:00pm 27.6 28.7 21.9 71 3.8 SE 19 26 10 14 1009.8 1009.7 0.0
27/05:30pm 28.7 30.2 22.0 67 4.5 ESE 17 26 9 14 1009.5 1009.4 0.0
27/05:00pm 28.7 29.4 21.5 65 4.8 ESE 20 32 11 17 1009.2 1009.1 0.0
27/04:30pm 29.0 28.8 21.2 62 5.2 ESE 24 41 13 22 1009.2 1009.1 0.0
27/04:00pm 29.2 29.6 21.7 64 5.0 ESE 22 41 12 22 1009.0 1008.9 0.0
27/03:30pm 29.4 29.9 21.9 64 5.1 E 22 33 12 18 1008.9 1008.8 0.0
27/03:00pm 29.7 29.4 21.1 60 5.7 ESE 24 39 13 21 1009.1 1009.0 0.0
27/02:30pm 30.6 30.7 21.9 59 5.9 ESE 24 35 13 19 1009.5 1009.4 0.0
27/02:00pm 29.9 30.7 21.8 62 5.5 ESE 20 37 11 20 1009.8 1009.7 0.0
27/01:30pm 30.8 31.0 22.1 59 5.9 ESE 24 37 13 20 1010.1 1010.0 0.0
27/01:00pm 30.0 30.2 21.4 60 5.8 ESE 22 33 12 18 1010.6 1010.5 0.0
27/12:30pm 30.2 30.9 21.6 60 5.8 ESE 20 32 11 17 1011.2 1011.1 0.0
27/12:00pm 29.6 30.3 22.3 65 5.0 E 22 33 12 18 1011.7 1011.6 0.0
27/11:30am 30.1 30.9 21.7 60 5.7 ESE 20 30 11 16 1012.0 1011.9 0.0
27/11:00am 30.0 31.3 22.7 65 5.0 ESE 20 32 11 17 1012.5 1012.4 0.0
27/10:30am 27.9 28.8 21.9 70 4.0 ESE 20 33 11 18 1012.9 1012.8 0.0
27/10:00am 28.0 28.3 21.5 67 4.3 ESE 22 30 12 16 1012.8 1012.7 0.0
27/09:30am 28.1 29.4 22.3 70 3.9 E 19 24 10 13 1013.0 1012.9 0.0
27/09:00am 28.6 30.4 22.6 70 4.1 E 17 26 9 14 1013.0 1012.9 0.0
27/08:30am 27.7 28.8 22.4 73 3.6 ESE 20 30 11 16 1013.0 1012.9 0.0
27/08:00am 27.3 28.9 22.9 77 3.0 ESE 19 26 10 14 1012.7 1012.6 0.0
27/07:30am 26.3 29.6 23.2 83 2.1 ESE 11 17 6 9 1012.2 1012.1 0.0
27/07:00am 23.9 27.7 22.7 93 0.8 SSE 7 9 4 5 1012.0 1011.9 0.0
27/06:30am 23.5 27.1 22.3 93 0.8 SSE 7 11 4 6 1011.4 1011.3 0.0
27/06:00am 23.7 27.3 22.3 92 0.9 S 7 9 4 5 1011.2 1011.1 0.0
27/05:30am 24.3 28.0 22.6 90 1.1 SSE 7 9 4 5 1010.9 1010.8 0.0
27/05:23am 24.2 27.5 22.5 90 1.1 SSE 9 13 5 7 1010.8 1010.7 0.0
27/05:00am 25.0 28.4 22.7 87 1.6 SSE 9 13 5 7 1010.5 1010.4 0.0
27/04:45am 25.3 28.5 23.0 87 1.6 SE 11 15 6 8 1010.4 1010.3 0.0
27/04:30am 25.0 28.3 23.2 90 1.2 ESE 11 15 6 8 1010.3 1010.2 0.0
27/04:18am 23.9 27.7 22.7 93 0.8 SSE 7 11 4 6 1010.4 1010.3 0.0
27/04:00am 23.7 28.3 22.5 93 0.8 SE 2 7 1 4 1010.3 1010.2 0.0
27/03:30am 23.8 27.7 22.6 93 0.8 E 6 7 3 4 1010.1 1010.0 0.0
27/03:00am 24.1 27.5 22.7 92 0.9 S 9 11 5 6 1010.2 1010.1 0.0
27/02:30am 24.5 28.0 22.9 91 1.1 S 9 13 5 7 1010.3 1010.2 0.0
27/02:12am 24.7 28.2 22.8 89 1.3 SSE 9 15 5 8 1010.5 1010.4 0.0
27/02:00am 24.9 28.4 22.8 88 1.4 SSE 9 13 5 7 1010.6 1010.5 0.0
27/01:30am 25.9 29.2 23.2 85 1.8 SE 11 15 6 8 1011.0 1010.9 0.0
27/01:00am 25.9 29.2 23.2 85 1.8 SE 11 15 6 8 1011.3 1011.2 0.0
27/12:30am 26.0 29.6 23.1 84 2.0 ESE 9 17 5 9 1011.7 1011.6 0.0
27/12:00am 26.2 29.4 23.1 83 2.1 ESE 11 17 6 9 1012.1 1012.0 0.0
 
Date/Time
EST
Temp
°C
App
Temp
°C
Dew
Point
°C
Rel
Hum
%
Delta-T
°C
Wind Press
QNH
hPa
Press
MSL
hPa
Rain since
9am
mm
Dir  Spd
km/h
Gust
km/h
Spd
kts
Gust
kts
26/11:30pm 26.3 30.0 23.2 83 2.1 ESE 9 13 5 7 1012.4 1012.3 0.0
26/11:00pm 26.3 30.0 23.2 83 2.1 ESE 9 15 5 8 1012.7 1012.6 0.0
26/10:30pm 26.2 29.8 23.1 83 2.1 ESE 9 15 5 8 1012.8 1012.7 0.0
26/10:23pm 26.1 29.2 22.8 82 2.2 ESE 11 17 6 9 1012.8 1012.7 0.0
26/10:00pm 26.1 29.3 23.0 83 2.1 ESE 11 17 6 9 1012.6 1012.5 0.0
26/09:49pm 26.2 29.4 23.1 83 2.1 ESE 11 17 6 9 1012.7 1012.6 0.0
26/09:32pm 26.1 29.3 23.0 83 2.1 ESE 11 17 6 9 1012.6 1012.5 0.0
26/09:30pm 26.1 28.9 23.0 83 2.1 ESE 13 19 7 10 1012.6 1012.5 0.0
26/09:00pm 26.2 29.1 23.1 83 2.1 ESE 13 17 7 9 1012.6 1012.5 0.0
26/08:30pm 26.1 30.0 23.0 83 2.1 ESE 7 13 4 7 1012.4 1012.3 0.0
26/08:00pm 26.3 29.5 23.0 82 2.2 ESE 11 15 6 8 1012.0 1011.9 0.0
26/07:30pm 26.5 29.6 22.8 80 2.5 ESE 11 17 6 9 1011.6 1011.5 0.0
26/07:00pm 27.0 30.0 22.6 77 3.0 ESE 11 15 6 8 1011.2 1011.1 0.0
26/06:30pm 27.0 29.9 22.4 76 3.1 ESE 11 15 6 8 1010.7 1010.6 0.0
26/06:00pm 27.6 30.0 22.3 73 3.6 ESE 13 22 7 12 1010.3 1010.2 0.0
26/05:30pm 28.2 29.4 22.2 70 4.0 ESE 19 28 10 15 1009.9 1009.8 0.0
26/05:00pm 28.5 30.2 22.3 69 4.2 E 17 24 9 13 1009.6 1009.5 0.0
26/04:30pm 28.8 30.1 22.3 68 4.4 E 19 28 10 15 1009.3 1009.2 0.0
26/04:00pm 29.4 30.4 22.1 65 4.9 E 20 28 11 15 1009.1 1009.0 0.0
26/03:30pm 29.8 31.1 22.3 64 5.1 ESE 19 30 10 16 1009.0 1008.9 0.0
26/03:00pm 30.1 31.4 22.3 63 5.3 E 19 30 10 16 1009.2 1009.1 0.0
26/02:30pm 29.4 30.6 22.1 65 4.9 E 19 28 10 15 1009.3 1009.2 0.0
26/02:00pm 31.0 32.4 22.6 61 5.7 ESE 19 28 10 15 1009.5 1009.4 0.0
26/01:30pm 30.6 32.0 22.5 62 5.5 ESE 19 30 10 16 1009.8 1009.7 0.0
26/01:00pm 30.5 31.6 21.9 60 5.8 E 19 30 10 16 1010.1 1010.0 0.0
26/12:30pm 30.4 31.1 21.5 59 6.0 E 20 32 11 17 1010.5 1010.4 0.0
26/12:00pm 30.0 30.8 21.4 60 5.8 E 19 26 10 14 1010.9 1010.8 0.0
26/11:30am 29.5 30.7 21.4 61 5.4 E 17 26 9 14 1011.3 1011.2 0.0
26/11:00am 30.5 32.3 21.9 60 5.8 E 15 26 8 14 1011.7 1011.6 0.0
26/10:30am 29.8 31.1 21.7 61 5.5 ESE 17 26 9 14 1011.9 1011.8 0.0
26/10:00am 29.0 31.1 22.5 68 4.4 E 15 24 8 13 1012.1 1012.0 0.0
26/09:30am 28.7 30.3 22.2 68 4.4 ESE 17 30 9 16 1012.3 1012.2 0.0
26/09:00am 27.6 30.8 23.0 76 3.1 E 11 22 6 12 1012.3 1012.2 0.0
26/08:30am 26.4 30.8 23.5 84 2.0 SSE 6 13 3 7 1012.3 1012.2 0.0
26/08:00am 25.6 30.4 23.5 88 1.4 SSE 4 9 2 5 1012.0 1011.9 0.0
26/07:30am 23.8 29.1 23.1 96 0.5 CALM 0 0 0 0 1011.6 1011.5 0.0
26/07:00am 22.2 26.9 21.9 98 0.2 CALM 0 0 0 0 1011.2 1011.1 0.0
26/06:30am 21.8 26.3 21.5 98 0.2 CALM 0 0 0 0 1010.9 1010.8 0.0
26/06:00am 21.2 25.3 20.7 97 0.3 CALM 0 0 0 0 1010.6 1010.5 0.0
26/05:30am 21.2 25.3 20.7 97 0.3 CALM 0 0 0 0 1010.4 1010.3 0.0
26/05:00am 21.5 25.7 21.0 97 0.3 CALM 0 0 0 0 1010.1 1010.0 0.0
26/04:30am 21.8 26.1 21.1 96 0.5 CALM 0 0 0 0 1009.8 1009.7 0.0
26/04:00am 22.3 26.8 21.6 96 0.5 CALM 0 0 0 0 1009.7 1009.6 0.0
26/03:30am 22.5 27.1 21.8 96 0.5 CALM 0 0 0 0 1009.7 1009.6 0.0
26/03:28am 22.6 27.3 21.9 96 0.5 CALM 0 0 0 0 1009.7 1009.6 0.0
26/03:17am 22.8 27.6 22.1 96 0.5 CALM 0 0 0 0 1009.9 1009.8 0.0
26/03:01am 22.9 27.7 22.2 96 0.5 CALM 0 0 0 0 1010.1 1010.0 0.0
26/03:00am 22.9 27.7 22.2 96 0.5 CALM 0 0 0 0 1010.1 1010.0 0.0
26/02:30am 22.9 27.7 22.2 96 0.5 CALM 0 0 0 0 1010.2 1010.1 0.0
26/02:00am 22.5 27.1 21.8 96 0.5 CALM 0 0 0 0 1010.3 1010.2 0.0
26/01:30am 22.4 27.0 21.7 96 0.5 CALM 0 0 0 0 1010.5 1010.4 0.0
26/01:29am 22.4 27.0 21.7 96 0.5 CALM 0 0 0 0 1010.4 1010.3 0.0
26/01:00am 22.8 27.5 22.0 95 0.5 CALM 0 0 0 0 1010.7 1010.6 0.0
26/12:34am 22.9 27.7 22.1 95 0.5 CALM 0 0 0 0 1010.7 1010.6 0.0
26/12:30am 22.9 27.7 22.1 95 0.5 CALM 0 0 0 0 1010.8 1010.7 0.0
26/12:00am 22.8 27.5 22.0 95 0.5 CALM 0 0 0 0 1011.0 1010.9 0.0
 
Date/Time
EST
Temp
°C
App
Temp
°C
Dew
Point
°C
Rel
Hum
%
Delta-T
°C
Wind Press
QNH
hPa
Press
MSL
hPa
Rain since
9am
mm
Dir  Spd
km/h
Gust
km/h
Spd
kts
Gust
kts
25/11:35pm 22.7 27.3 21.7 94 0.7 CALM 0 0 0 0 1011.3 1011.2 0.0
25/11:30pm 22.9 27.3 22.1 95 0.5 WNW 2 6 1 3 1011.3 1011.2 0.0
25/11:08pm 23.0 26.6 22.0 94 0.7 WNW 6 7 3 4 1011.4 1011.3 0.0
25/11:00pm 23.2 27.3 22.2 94 0.7 WNW 4 6 2 3 1011.4 1011.3 0.0
25/10:55pm 23.3 27.0 22.3 94 0.7 WNW 6 7 3 4 1011.4 1011.3 0.0
25/10:30pm 23.6 27.7 22.2 92 0.9 NW 4 6 2 3 1011.5 1011.4 0.0
25/10:00pm 23.7 27.9 22.5 93 0.8 NNW 4 7 2 4 1011.5 1011.4 0.0
25/09:30pm 23.6 27.3 22.2 92 0.9 WNW 6 7 3 4 1011.4 1011.3 0.0
25/09:00pm 24.0 28.9 22.3 90 1.1 CALM 0 0 0 0 1011.3 1011.2 0.0
25/08:30pm 25.2 29.5 22.7 86 1.7 SSE 4 6 2 3 1010.9 1010.8 0.0
25/08:24pm 25.2 29.4 22.5 85 1.8 SSE 4 6 2 3 1010.9 1010.8 0.0
25/08:00pm 25.5 29.1 22.4 83 2.1 SE 7 9 4 5 1010.7 1010.6 0.0
25/07:30pm 25.6 29.3 22.5 83 2.1 E 7 11 4 6 1010.3 1010.2 0.0
25/07:00pm 25.9 29.4 22.2 80 2.5 ESE 7 9 4 5 1009.9 1009.8 0.0
25/06:30pm 26.5 29.7 22.3 78 2.8 E 9 13 5 7 1009.5 1009.4 0.0
25/06:00pm 27.1 29.6 22.5 76 3.1 E 13 19 7 10 1009.3 1009.2 0.0
25/05:30pm 27.6 30.0 22.3 73 3.6 E 13 19 7 10 1008.8 1008.7 0.0
25/05:00pm 28.0 30.2 21.8 69 4.2 E 13 19 7 10 1008.4 1008.3 0.0
25/04:30pm 28.5 29.6 21.3 65 4.8 ESE 17 22 9 12 1008.3 1008.2 0.0
25/04:00pm 28.7 29.8 21.2 64 5.0 ESE 17 22 9 12 1008.2 1008.1 0.0
25/03:30pm 29.3 30.9 20.7 59 5.7 ENE 13 20 7 11 1008.3 1008.2 0.0
25/03:00pm 29.9 31.0 21.3 60 5.8 E 17 22 9 12 1008.4 1008.3 0.0
25/02:30pm 29.9 30.7 20.7 57 6.1 ESE 17 26 9 14 1008.6 1008.5 0.0
25/02:00pm 30.0 30.6 20.3 56 6.4 E 17 26 9 14 1008.9 1008.8 0.0
25/01:30pm 30.1 31.6 21.2 59 6.0 ENE 15 22 8 12 1009.4 1009.3 0.0
25/01:00pm 29.7 31.3 20.8 58 5.9 ENE 13 20 7 11 1009.9 1009.8 0.0
25/12:30pm 30.3 31.6 20.8 56 6.3 ENE 15 24 8 13 1010.4 1010.3 0.0
25/12:00pm 29.4 30.7 20.8 60 5.7 ENE 15 26 8 14 1010.9 1010.8 0.0
25/11:30am 29.2 30.0 20.6 59 5.7 E 17 24 9 13 1011.3 1011.2 0.0
25/11:00am 29.3 30.5 20.7 59 5.7 E 15 22 8 12 1011.6 1011.5 0.0
25/10:30am 28.6 29.9 20.9 63 5.1 ESE 15 22 8 12 1012.0 1011.9 0.0
25/10:00am 28.5 30.1 21.5 66 4.7 E 15 22 8 12 1012.3 1012.2 0.0
25/09:30am 27.6 29.2 21.4 69 4.1 ESE 15 20 8 11 1012.3 1012.2 0.0
25/09:00am 28.0 31.3 22.5 72 3.7 SE 9 15 5 8 1012.2 1012.1 0.0
25/08:30am 25.6 29.2 22.1 81 2.3 SSE 6 11 3 6 1012.1 1012.0 0.0
25/08:00am 23.6 28.8 22.8 95 0.5 CALM 0 6 0 3 1011.9 1011.8 0.0
25/07:30am 21.9 26.4 21.6 98 0.2 CALM 0 2 0 1 1011.5 1011.4 0.0
25/07:00am 20.5 23.9 20.2 98 0.2 NW 2 6 1 3 1010.9 1010.8 0.0

Other Formats:

Comma delimited format used in spreadsheet applications
http://www.bom.gov.au/fwo/IDQ60801/IDQ60801.94186.axf

JavaScript Object Notation format (JSON) in row-major order
http://www.bom.gov.au/fwo/IDQ60801/IDQ60801.94186.json